sensor_id;sensor_type;location;lat;lon;timestamp;P1;durP1;ratioP1;P2;durP2;ratioP2
13173;SDS011;6652;48.802;9.190;2023-06-22T00:02:16;13.35;;;8.70;;
13173;SDS011;6652;48.802;9.190;2023-06-22T00:04:42;13.95;;;9.05;;
13173;SDS011;6652;48.802;9.190;2023-06-22T00:07:10;17.20;;;9.52;;
13173;SDS011;6652;48.802;9.190;2023-06-22T00:09:36;14.88;;;9.10;;
13173;SDS011;6652;48.802;9.190;2023-06-22T00:12:03;16.08;;;8.82;;
13173;SDS011;6652;48.802;9.190;2023-06-22T00:14:32;14.75;;;9.00;;
13173;SDS011;6652;48.802;9.190;2023-06-22T00:16:59;14.88;;;8.63;;
13173;SDS011;6652;48.802;9.190;2023-06-22T00:19:26;14.65;;;8.05;;
13173;SDS011;6652;48.802;9.190;2023-06-22T00:21:53;16.00;;;9.45;;
13173;SDS011;6652;48.802;9.190;2023-06-22T00:24:19;12.55;;;8.88;;
13173;SDS011;6652;48.802;9.190;2023-06-22T00:26:47;15.45;;;8.65;;
13173;SDS011;6652;48.802;9.190;2023-06-22T00:29:14;16.08;;;9.23;;
13173;SDS011;6652;48.802;9.190;2023-06-22T00:31:43;17.05;;;9.40;;
13173;SDS011;6652;48.802;9.190;2023-06-22T00:34:10;14.05;;;8.95;;
13173;SDS011;6652;48.802;9.190;2023-06-22T00:36:36;15.65;;;9.52;;
13173;SDS011;6652;48.802;9.190;2023-06-22T00:39:05;20.42;;;9.95;;
13173;SDS011;6652;48.802;9.190;2023-06-22T00:41:33;17.08;;;8.65;;
13173;SDS011;6652;48.802;9.190;2023-06-22T00:44:00;17.40;;;9.93;;
13173;SDS011;6652;48.802;9.190;2023-06-22T00:46:27;17.75;;;9.65;;
13173;SDS011;6652;48.802;9.190;2023-06-22T00:48:55;16.33;;;9.45;;
13173;SDS011;6652;48.802;9.190;2023-06-22T00:51:22;15.55;;;9.25;;
13173;SDS011;6652;48.802;9.190;2023-06-22T00:53:49;14.73;;;9.50;;
13173;SDS011;6652;48.802;9.190;2023-06-22T00:56:16;18.75;;;9.35;;
13173;SDS011;6652;48.802;9.190;2023-06-22T00:58:49;14.80;;;9.00;;
13173;SDS011;6652;48.802;9.190;2023-06-22T01:01:18;17.10;;;9.48;;
13173;SDS011;6652;48.802;9.190;2023-06-22T01:03:47;14.73;;;9.40;;
13173;SDS011;6652;48.802;9.190;2023-06-22T01:06:19;21.02;;;10.50;;
13173;SDS011;6652;48.802;9.190;2023-06-22T01:08:53;19.98;;;9.88;;
13173;SDS011;6652;48.802;9.190;2023-06-22T01:11:31;23.35;;;9.23;;
13173;SDS011;6652;48.802;9.190;2023-06-22T01:16:33;19.92;;;10.15;;
13173;SDS011;6652;48.802;9.190;2023-06-22T01:19:05;17.95;;;10.40;;
13173;SDS011;6652;48.802;9.190;2023-06-22T01:21:47;15.13;;;8.85;;
13173;SDS011;6652;48.802;9.190;2023-06-22T01:24:18;16.17;;;8.55;;
13173;SDS011;6652;48.802;9.190;2023-06-22T01:26:53;14.15;;;10.00;;
13173;SDS011;6652;48.802;9.190;2023-06-22T01:29:26;14.35;;;9.73;;
13173;SDS011;6652;48.802;9.190;2023-06-22T01:31:55;14.75;;;8.63;;
13173;SDS011;6652;48.802;9.190;2023-06-22T01:34:23;13.70;;;8.98;;
13173;SDS011;6652;48.802;9.190;2023-06-22T01:36:50;14.18;;;9.80;;
13173;SDS011;6652;48.802;9.190;2023-06-22T01:39:18;21.33;;;9.52;;
13173;SDS011;6652;48.802;9.190;2023-06-22T01:41:47;18.15;;;10.43;;
13173;SDS011;6652;48.802;9.190;2023-06-22T01:44:14;17.20;;;9.70;;
13173;SDS011;6652;48.802;9.190;2023-06-22T01:46:43;16.52;;;9.57;;
13173;SDS011;6652;48.802;9.190;2023-06-22T01:49:10;16.92;;;9.75;;
13173;SDS011;6652;48.802;9.190;2023-06-22T01:51:37;17.73;;;9.98;;
13173;SDS011;6652;48.802;9.190;2023-06-22T01:54:05;14.75;;;9.05;;
13173;SDS011;6652;48.802;9.190;2023-06-22T01:56:32;12.95;;;9.10;;
13173;SDS011;6652;48.802;9.190;2023-06-22T01:59:02;16.30;;;9.85;;
13173;SDS011;6652;48.802;9.190;2023-06-22T02:01:36;16.15;;;9.45;;
13173;SDS011;6652;48.802;9.190;2023-06-22T02:04:11;14.35;;;9.15;;
13173;SDS011;6652;48.802;9.190;2023-06-22T02:09:09;13.52;;;9.27;;
13173;SDS011;6652;48.802;9.190;2023-06-22T02:11:40;16.92;;;10.48;;
13173;SDS011;6652;48.802;9.190;2023-06-22T02:14:09;17.63;;;10.02;;
13173;SDS011;6652;48.802;9.190;2023-06-22T02:16:36;19.55;;;9.50;;
13173;SDS011;6652;48.802;9.190;2023-06-22T02:19:03;15.40;;;9.80;;
13173;SDS011;6652;48.802;9.190;2023-06-22T02:21:32;17.67;;;10.57;;
13173;SDS011;6652;48.802;9.190;2023-06-22T02:23:59;15.57;;;10.27;;
13173;SDS011;6652;48.802;9.190;2023-06-22T02:26:26;20.45;;;11.07;;
13173;SDS011;6652;48.802;9.190;2023-06-22T02:28:54;19.30;;;10.48;;
13173;SDS011;6652;48.802;9.190;2023-06-22T02:31:20;18.58;;;11.13;;
13173;SDS011;6652;48.802;9.190;2023-06-22T02:33:47;15.02;;;11.07;;
13173;SDS011;6652;48.802;9.190;2023-06-22T02:36:15;18.05;;;10.90;;
13173;SDS011;6652;48.802;9.190;2023-06-22T02:38:43;14.32;;;10.95;;
13173;SDS011;6652;48.802;9.190;2023-06-22T02:41:13;22.02;;;11.15;;
13173;SDS011;6652;48.802;9.190;2023-06-22T02:43:43;24.80;;;11.82;;
13173;SDS011;6652;48.802;9.190;2023-06-22T02:46:10;17.52;;;11.10;;
13173;SDS011;6652;48.802;9.190;2023-06-22T02:48:38;18.48;;;11.38;;
13173;SDS011;6652;48.802;9.190;2023-06-22T02:51:04;18.58;;;11.18;;
13173;SDS011;6652;48.802;9.190;2023-06-22T02:53:31;21.42;;;12.13;;
13173;SDS011;6652;48.802;9.190;2023-06-22T02:56:00;23.35;;;11.70;;
13173;SDS011;6652;48.802;9.190;2023-06-22T02:58:28;20.73;;;11.15;;
13173;SDS011;6652;48.802;9.190;2023-06-22T03:00:55;16.40;;;11.60;;
13173;SDS011;6652;48.802;9.190;2023-06-22T03:03:21;14.52;;;10.52;;
13173;SDS011;6652;48.802;9.190;2023-06-22T03:05:51;18.58;;;11.27;;
13173;SDS011;6652;48.802;9.190;2023-06-22T03:08:18;21.23;;;11.50;;
13173;SDS011;6652;48.802;9.190;2023-06-22T03:10:44;24.67;;;11.68;;
13173;SDS011;6652;48.802;9.190;2023-06-22T03:13:12;17.42;;;10.60;;
13173;SDS011;6652;48.802;9.190;2023-06-22T03:15:39;17.20;;;10.75;;
13173;SDS011;6652;48.802;9.190;2023-06-22T03:18:06;17.55;;;10.95;;
13173;SDS011;6652;48.802;9.190;2023-06-22T03:20:33;16.80;;;10.25;;
13173;SDS011;6652;48.802;9.190;2023-06-22T03:22:59;21.20;;;11.80;;
13173;SDS011;6652;48.802;9.190;2023-06-22T03:25:26;17.08;;;11.32;;
13173;SDS011;6652;48.802;9.190;2023-06-22T03:27:53;14.38;;;10.13;;
13173;SDS011;6652;48.802;9.190;2023-06-22T03:30:21;18.92;;;10.43;;
13173;SDS011;6652;48.802;9.190;2023-06-22T03:32:48;17.73;;;10.55;;
13173;SDS011;6652;48.802;9.190;2023-06-22T03:35:14;17.25;;;9.88;;
13173;SDS011;6652;48.802;9.190;2023-06-22T03:37:41;17.92;;;10.32;;
13173;SDS011;6652;48.802;9.190;2023-06-22T03:40:08;18.80;;;10.18;;
13173;SDS011;6652;48.802;9.190;2023-06-22T03:42:35;17.30;;;10.27;;
13173;SDS011;6652;48.802;9.190;2023-06-22T03:45:02;14.02;;;10.35;;
13173;SDS011;6652;48.802;9.190;2023-06-22T03:47:31;17.27;;;10.18;;
13173;SDS011;6652;48.802;9.190;2023-06-22T03:49:58;18.35;;;10.55;;
13173;SDS011;6652;48.802;9.190;2023-06-22T03:52:25;13.82;;;9.95;;
13173;SDS011;6652;48.802;9.190;2023-06-22T03:54:51;15.50;;;10.93;;
13173;SDS011;6652;48.802;9.190;2023-06-22T03:57:18;17.73;;;10.80;;
13173;SDS011;6652;48.802;9.190;2023-06-22T03:59:45;16.42;;;10.70;;
13173;SDS011;6652;48.802;9.190;2023-06-22T04:02:12;18.83;;;11.45;;
13173;SDS011;6652;48.802;9.190;2023-06-22T04:04:40;20.45;;;10.70;;
13173;SDS011;6652;48.802;9.190;2023-06-22T04:07:06;16.98;;;10.02;;
13173;SDS011;6652;48.802;9.190;2023-06-22T04:09:33;17.30;;;10.75;;
13173;SDS011;6652;48.802;9.190;2023-06-22T04:12:00;19.50;;;10.48;;
13173;SDS011;6652;48.802;9.190;2023-06-22T04:14:28;15.95;;;10.55;;
13173;SDS011;6652;48.802;9.190;2023-06-22T04:16:55;15.20;;;10.02;;
13173;SDS011;6652;48.802;9.190;2023-06-22T04:19:22;13.73;;;9.75;;
13173;SDS011;6652;48.802;9.190;2023-06-22T04:21:50;20.25;;;10.85;;
13173;SDS011;6652;48.802;9.190;2023-06-22T04:24:16;19.02;;;10.05;;
13173;SDS011;6652;48.802;9.190;2023-06-22T04:26:43;17.27;;;9.35;;
13173;SDS011;6652;48.802;9.190;2023-06-22T04:29:12;19.05;;;9.10;;
13173;SDS011;6652;48.802;9.190;2023-06-22T04:31:39;19.65;;;9.18;;
13173;SDS011;6652;48.802;9.190;2023-06-22T04:34:07;19.63;;;8.52;;
13173;SDS011;6652;48.802;9.190;2023-06-22T04:36:34;17.15;;;9.65;;
13173;SDS011;6652;48.802;9.190;2023-06-22T04:39:05;17.67;;;9.32;;
13173;SDS011;6652;48.802;9.190;2023-06-22T04:41:34;16.98;;;8.77;;
13173;SDS011;6652;48.802;9.190;2023-06-22T04:44:07;13.95;;;9.20;;
13173;SDS011;6652;48.802;9.190;2023-06-22T04:46:38;17.05;;;9.57;;
13173;SDS011;6652;48.802;9.190;2023-06-22T04:49:05;17.90;;;9.38;;
13173;SDS011;6652;48.802;9.190;2023-06-22T04:51:36;13.35;;;8.77;;
13173;SDS011;6652;48.802;9.190;2023-06-22T04:54:05;19.20;;;9.30;;
13173;SDS011;6652;48.802;9.190;2023-06-22T04:56:32;18.50;;;9.07;;
13173;SDS011;6652;48.802;9.190;2023-06-22T04:58:59;14.07;;;9.23;;
13173;SDS011;6652;48.802;9.190;2023-06-22T05:01:28;15.07;;;9.50;;
13173;SDS011;6652;48.802;9.190;2023-06-22T05:03:56;21.38;;;9.10;;
13173;SDS011;6652;48.802;9.190;2023-06-22T05:06:25;17.63;;;8.80;;
13173;SDS011;6652;48.802;9.190;2023-06-22T05:08:53;11.75;;;8.63;;
13173;SDS011;6652;48.802;9.190;2023-06-22T05:11:24;12.10;;;8.48;;
13173;SDS011;6652;48.802;9.190;2023-06-22T05:13:51;14.63;;;8.13;;
13173;SDS011;6652;48.802;9.190;2023-06-22T05:16:18;17.92;;;8.25;;
13173;SDS011;6652;48.802;9.190;2023-06-22T05:18:49;12.20;;;8.82;;
13173;SDS011;6652;48.802;9.190;2023-06-22T05:21:17;16.05;;;8.10;;
13173;SDS011;6652;48.802;9.190;2023-06-22T05:23:44;12.25;;;8.05;;
13173;SDS011;6652;48.802;9.190;2023-06-22T05:26:10;15.98;;;8.50;;
13173;SDS011;6652;48.802;9.190;2023-06-22T05:28:38;18.48;;;8.35;;
13173;SDS011;6652;48.802;9.190;2023-06-22T05:31:05;15.57;;;8.32;;
13173;SDS011;6652;48.802;9.190;2023-06-22T05:33:32;14.18;;;9.35;;
13173;SDS011;6652;48.802;9.190;2023-06-22T05:35:59;15.00;;;9.05;;
13173;SDS011;6652;48.802;9.190;2023-06-22T05:38:26;16.35;;;8.75;;
13173;SDS011;6652;48.802;9.190;2023-06-22T05:40:53;13.57;;;8.55;;
13173;SDS011;6652;48.802;9.190;2023-06-22T05:43:19;15.57;;;8.45;;
13173;SDS011;6652;48.802;9.190;2023-06-22T05:45:49;14.68;;;8.60;;
13173;SDS011;6652;48.802;9.190;2023-06-22T05:48:16;13.27;;;8.02;;
13173;SDS011;6652;48.802;9.190;2023-06-22T05:50:43;17.20;;;8.60;;
13173;SDS011;6652;48.802;9.190;2023-06-22T05:53:10;17.65;;;8.48;;
13173;SDS011;6652;48.802;9.190;2023-06-22T05:55:36;15.60;;;8.13;;
13173;SDS011;6652;48.802;9.190;2023-06-22T05:58:03;11.00;;;7.45;;
13173;SDS011;6652;48.802;9.190;2023-06-22T06:00:30;13.18;;;8.07;;
13173;SDS011;6652;48.802;9.190;2023-06-22T06:02:59;14.02;;;7.80;;
13173;SDS011;6652;48.802;9.190;2023-06-22T06:05:28;13.57;;;7.65;;
13173;SDS011;6652;48.802;9.190;2023-06-22T06:07:55;16.42;;;7.55;;
13173;SDS011;6652;48.802;9.190;2023-06-22T06:10:22;14.10;;;7.68;;
13173;SDS011;6652;48.802;9.190;2023-06-22T06:12:48;16.80;;;7.97;;
13173;SDS011;6652;48.802;9.190;2023-06-22T06:15:15;12.82;;;7.88;;
13173;SDS011;6652;48.802;9.190;2023-06-22T06:17:46;10.52;;;7.07;;
13173;SDS011;6652;48.802;9.190;2023-06-22T06:20:14;13.07;;;7.63;;
13173;SDS011;6652;48.802;9.190;2023-06-22T06:22:41;13.98;;;7.03;;
13173;SDS011;6652;48.802;9.190;2023-06-22T06:25:09;12.00;;;7.13;;
13173;SDS011;6652;48.802;9.190;2023-06-22T06:27:41;18.98;;;8.13;;
13173;SDS011;6652;48.802;9.190;2023-06-22T06:30:08;11.27;;;7.53;;
13173;SDS011;6652;48.802;9.190;2023-06-22T06:32:36;10.77;;;6.13;;
13173;SDS011;6652;48.802;9.190;2023-06-22T06:35:03;10.52;;;6.45;;
13173;SDS011;6652;48.802;9.190;2023-06-22T06:37:33;15.60;;;7.20;;
13173;SDS011;6652;48.802;9.190;2023-06-22T06:40:01;17.23;;;7.65;;
13173;SDS011;6652;48.802;9.190;2023-06-22T06:42:30;15.57;;;6.90;;
13173;SDS011;6652;48.802;9.190;2023-06-22T06:44:57;11.32;;;6.68;;
13173;SDS011;6652;48.802;9.190;2023-06-22T06:47:24;13.73;;;6.50;;
13173;SDS011;6652;48.802;9.190;2023-06-22T06:49:51;9.85;;;6.47;;
13173;SDS011;6652;48.802;9.190;2023-06-22T06:52:17;12.40;;;6.43;;
13173;SDS011;6652;48.802;9.190;2023-06-22T06:54:46;9.13;;;5.97;;
13173;SDS011;6652;48.802;9.190;2023-06-22T06:57:13;10.18;;;6.25;;
13173;SDS011;6652;48.802;9.190;2023-06-22T06:59:40;11.68;;;6.10;;
13173;SDS011;6652;48.802;9.190;2023-06-22T07:02:07;12.13;;;6.35;;
13173;SDS011;6652;48.802;9.190;2023-06-22T07:04:34;10.65;;;5.93;;
13173;SDS011;6652;48.802;9.190;2023-06-22T07:07:01;9.98;;;5.82;;
13173;SDS011;6652;48.802;9.190;2023-06-22T07:09:28;8.00;;;5.35;;
13173;SDS011;6652;48.802;9.190;2023-06-22T07:11:56;9.15;;;6.38;;
13173;SDS011;6652;48.802;9.190;2023-06-22T07:14:23;13.65;;;5.93;;
13173;SDS011;6652;48.802;9.190;2023-06-22T07:16:50;12.50;;;5.53;;
13173;SDS011;6652;48.802;9.190;2023-06-22T07:19:23;10.63;;;5.57;;
13173;SDS011;6652;48.802;9.190;2023-06-22T07:21:51;9.52;;;5.78;;
13173;SDS011;6652;48.802;9.190;2023-06-22T07:24:18;10.48;;;4.97;;
13173;SDS011;6652;48.802;9.190;2023-06-22T07:26:46;10.85;;;6.00;;
13173;SDS011;6652;48.802;9.190;2023-06-22T07:29:14;7.50;;;5.30;;
13173;SDS011;6652;48.802;9.190;2023-06-22T07:31:44;12.75;;;5.75;;
13173;SDS011;6652;48.802;9.190;2023-06-22T07:34:11;7.88;;;5.70;;
13173;SDS011;6652;48.802;9.190;2023-06-22T07:36:38;9.43;;;5.22;;
13173;SDS011;6652;48.802;9.190;2023-06-22T07:39:07;7.97;;;4.70;;
13173;SDS011;6652;48.802;9.190;2023-06-22T07:41:34;8.73;;;4.95;;
13173;SDS011;6652;48.802;9.190;2023-06-22T07:44:01;10.13;;;4.90;;
13173;SDS011;6652;48.802;9.190;2023-06-22T07:46:30;13.32;;;5.25;;
13173;SDS011;6652;48.802;9.190;2023-06-22T07:48:58;7.13;;;4.25;;
13173;SDS011;6652;48.802;9.190;2023-06-22T07:51:33;9.20;;;4.70;;
13173;SDS011;6652;48.802;9.190;2023-06-22T07:54:00;8.95;;;5.00;;
13173;SDS011;6652;48.802;9.190;2023-06-22T08:01:38;9.70;;;4.80;;
13173;SDS011;6652;48.802;9.190;2023-06-22T08:04:05;12.10;;;5.22;;
13173;SDS011;6652;48.802;9.190;2023-06-22T08:06:32;12.48;;;4.55;;
13173;SDS011;6652;48.802;9.190;2023-06-22T08:08:59;10.13;;;4.60;;
13173;SDS011;6652;48.802;9.190;2023-06-22T08:11:26;9.57;;;5.10;;
13173;SDS011;6652;48.802;9.190;2023-06-22T08:13:53;10.88;;;4.38;;
13173;SDS011;6652;48.802;9.190;2023-06-22T08:16:20;10.48;;;4.55;;
13173;SDS011;6652;48.802;9.190;2023-06-22T08:18:49;9.02;;;4.68;;
13173;SDS011;6652;48.802;9.190;2023-06-22T08:21:16;11.30;;;4.68;;
13173;SDS011;6652;48.802;9.190;2023-06-22T08:23:42;12.05;;;5.00;;
13173;SDS011;6652;48.802;9.190;2023-06-22T08:26:09;11.00;;;5.30;;
13173;SDS011;6652;48.802;9.190;2023-06-22T08:28:36;12.82;;;4.63;;
13173;SDS011;6652;48.802;9.190;2023-06-22T08:31:03;14.50;;;4.53;;
13173;SDS011;6652;48.802;9.190;2023-06-22T08:33:30;12.35;;;5.43;;
13173;SDS011;6652;48.802;9.190;2023-06-22T08:35:58;11.45;;;5.32;;
13173;SDS011;6652;48.802;9.190;2023-06-22T08:38:25;10.40;;;4.68;;
13173;SDS011;6652;48.802;9.190;2023-06-22T08:40:52;16.13;;;5.43;;
13173;SDS011;6652;48.802;9.190;2023-06-22T08:43:19;10.95;;;5.13;;
13173;SDS011;6652;48.802;9.190;2023-06-22T08:45:46;10.70;;;5.20;;
13173;SDS011;6652;48.802;9.190;2023-06-22T08:48:13;12.55;;;5.70;;
13173;SDS011;6652;48.802;9.190;2023-06-22T08:50:39;11.55;;;5.10;;
13173;SDS011;6652;48.802;9.190;2023-06-22T08:53:08;13.82;;;4.60;;
13173;SDS011;6652;48.802;9.190;2023-06-22T08:55:34;14.48;;;5.45;;
13173;SDS011;6652;48.802;9.190;2023-06-22T08:58:01;18.40;;;5.18;;
13173;SDS011;6652;48.802;9.190;2023-06-22T09:00:28;20.10;;;6.07;;
13173;SDS011;6652;48.802;9.190;2023-06-22T09:02:58;13.25;;;5.18;;
13173;SDS011;6652;48.802;9.190;2023-06-22T09:05:24;12.48;;;5.47;;
13173;SDS011;6652;48.802;9.190;2023-06-22T09:07:52;11.07;;;5.43;;
13173;SDS011;6652;48.802;9.190;2023-06-22T09:10:21;27.25;;;5.43;;
13173;SDS011;6652;48.802;9.190;2023-06-22T09:12:47;12.32;;;5.15;;
13173;SDS011;6652;48.802;9.190;2023-06-22T09:15:14;10.20;;;5.28;;
13173;SDS011;6652;48.802;9.190;2023-06-22T09:17:41;9.25;;;4.90;;
13173;SDS011;6652;48.802;9.190;2023-06-22T09:20:09;14.07;;;5.18;;
13173;SDS011;6652;48.802;9.190;2023-06-22T09:22:37;12.82;;;4.70;;
13173;SDS011;6652;48.802;9.190;2023-06-22T09:25:04;16.35;;;6.15;;
13173;SDS011;6652;48.802;9.190;2023-06-22T09:27:33;14.90;;;5.63;;
13173;SDS011;6652;48.802;9.190;2023-06-22T09:30:00;13.40;;;5.75;;
13173;SDS011;6652;48.802;9.190;2023-06-22T09:32:28;13.23;;;5.50;;
13173;SDS011;6652;48.802;9.190;2023-06-22T09:34:55;14.60;;;4.57;;
13173;SDS011;6652;48.802;9.190;2023-06-22T09:37:22;14.02;;;5.25;;
13173;SDS011;6652;48.802;9.190;2023-06-22T09:39:49;18.83;;;5.60;;
13173;SDS011;6652;48.802;9.190;2023-06-22T09:42:15;18.60;;;5.25;;
13173;SDS011;6652;48.802;9.190;2023-06-22T09:44:43;16.95;;;6.47;;
13173;SDS011;6652;48.802;9.190;2023-06-22T09:47:10;13.18;;;4.85;;
13173;SDS011;6652;48.802;9.190;2023-06-22T09:49:37;20.63;;;6.13;;
13173;SDS011;6652;48.802;9.190;2023-06-22T09:52:04;17.30;;;6.25;;
13173;SDS011;6652;48.802;9.190;2023-06-22T09:54:31;20.17;;;5.75;;
13173;SDS011;6652;48.802;9.190;2023-06-22T09:56:58;17.52;;;5.38;;
13173;SDS011;6652;48.802;9.190;2023-06-22T09:59:25;15.93;;;5.72;;
13173;SDS011;6652;48.802;9.190;2023-06-22T10:01:53;15.23;;;5.13;;
13173;SDS011;6652;48.802;9.190;2023-06-22T10:04:20;19.42;;;5.57;;
13173;SDS011;6652;48.802;9.190;2023-06-22T10:06:47;18.27;;;5.20;;
13173;SDS011;6652;48.802;9.190;2023-06-22T10:09:13;20.45;;;5.90;;
13173;SDS011;6652;48.802;9.190;2023-06-22T10:11:40;16.23;;;5.30;;
13173;SDS011;6652;48.802;9.190;2023-06-22T10:14:07;19.55;;;5.97;;
13173;SDS011;6652;48.802;9.190;2023-06-22T10:16:36;22.77;;;5.95;;
13173;SDS011;6652;48.802;9.190;2023-06-22T10:19:04;14.20;;;5.80;;
13173;SDS011;6652;48.802;9.190;2023-06-22T10:21:31;20.33;;;5.60;;
13173;SDS011;6652;48.802;9.190;2023-06-22T10:23:58;18.95;;;5.90;;
13173;SDS011;6652;48.802;9.190;2023-06-22T10:26:30;16.27;;;6.55;;
13173;SDS011;6652;48.802;9.190;2023-06-22T10:28:58;15.60;;;5.93;;
13173;SDS011;6652;48.802;9.190;2023-06-22T10:31:25;14.60;;;6.13;;
13173;SDS011;6652;48.802;9.190;2023-06-22T10:33:52;15.77;;;6.00;;
13173;SDS011;6652;48.802;9.190;2023-06-22T10:36:20;27.27;;;5.95;;
13173;SDS011;6652;48.802;9.190;2023-06-22T10:38:49;22.35;;;5.95;;
13173;SDS011;6652;48.802;9.190;2023-06-22T10:41:17;13.20;;;5.13;;
13173;SDS011;6652;48.802;9.190;2023-06-22T10:43:44;18.05;;;6.35;;
13173;SDS011;6652;48.802;9.190;2023-06-22T10:46:11;19.85;;;5.82;;
13173;SDS011;6652;48.802;9.190;2023-06-22T10:48:38;17.15;;;5.65;;
13173;SDS011;6652;48.802;9.190;2023-06-22T10:51:05;15.98;;;5.97;;
13173;SDS011;6652;48.802;9.190;2023-06-22T10:53:33;17.67;;;5.60;;
13173;SDS011;6652;48.802;9.190;2023-06-22T10:56:00;18.15;;;5.65;;
13173;SDS011;6652;48.802;9.190;2023-06-22T10:58:27;21.10;;;6.68;;
13173;SDS011;6652;48.802;9.190;2023-06-22T11:00:54;20.67;;;5.95;;
13173;SDS011;6652;48.802;9.190;2023-06-22T11:03:20;15.15;;;5.38;;
13173;SDS011;6652;48.802;9.190;2023-06-22T11:05:47;27.27;;;6.80;;
13173;SDS011;6652;48.802;9.190;2023-06-22T11:08:14;18.95;;;5.22;;
13173;SDS011;6652;48.802;9.190;2023-06-22T11:10:43;17.35;;;5.20;;
13173;SDS011;6652;48.802;9.190;2023-06-22T11:13:10;20.38;;;6.15;;
13173;SDS011;6652;48.802;9.190;2023-06-22T11:15:37;17.33;;;6.22;;
13173;SDS011;6652;48.802;9.190;2023-06-22T11:18:04;22.05;;;6.10;;
13173;SDS011;6652;48.802;9.190;2023-06-22T11:20:32;13.70;;;6.30;;
13173;SDS011;6652;48.802;9.190;2023-06-22T11:23:03;18.35;;;6.00;;
13173;SDS011;6652;48.802;9.190;2023-06-22T11:25:31;19.95;;;5.88;;
13173;SDS011;6652;48.802;9.190;2023-06-22T11:28:01;16.38;;;5.75;;
13173;SDS011;6652;48.802;9.190;2023-06-22T11:30:28;22.17;;;5.70;;
13173;SDS011;6652;48.802;9.190;2023-06-22T11:32:56;17.60;;;6.63;;
13173;SDS011;6652;48.802;9.190;2023-06-22T11:35:23;18.15;;;6.25;;
13173;SDS011;6652;48.802;9.190;2023-06-22T11:37:49;19.58;;;5.90;;
13173;SDS011;6652;48.802;9.190;2023-06-22T11:40:16;18.27;;;5.95;;
13173;SDS011;6652;48.802;9.190;2023-06-22T11:42:43;20.02;;;6.55;;
13173;SDS011;6652;48.802;9.190;2023-06-22T11:45:11;17.60;;;5.88;;
13173;SDS011;6652;48.802;9.190;2023-06-22T11:47:38;27.13;;;6.18;;
13173;SDS011;6652;48.802;9.190;2023-06-22T11:50:05;20.08;;;6.25;;
13173;SDS011;6652;48.802;9.190;2023-06-22T11:52:33;22.63;;;6.97;;
13173;SDS011;6652;48.802;9.190;2023-06-22T11:55:01;13.30;;;6.07;;
13173;SDS011;6652;48.802;9.190;2023-06-22T11:57:30;19.35;;;6.28;;
13173;SDS011;6652;48.802;9.190;2023-06-22T11:59:58;25.13;;;6.80;;
13173;SDS011;6652;48.802;9.190;2023-06-22T12:02:27;18.20;;;5.80;;
13173;SDS011;6652;48.802;9.190;2023-06-22T12:04:54;18.42;;;6.57;;
13173;SDS011;6652;48.802;9.190;2023-06-22T12:07:23;17.83;;;6.45;;
13173;SDS011;6652;48.802;9.190;2023-06-22T12:09:49;16.48;;;5.93;;
13173;SDS011;6652;48.802;9.190;2023-06-22T12:12:16;25.75;;;6.85;;
13173;SDS011;6652;48.802;9.190;2023-06-22T12:14:43;24.95;;;5.88;;
13173;SDS011;6652;48.802;9.190;2023-06-22T12:17:10;15.02;;;6.00;;
13173;SDS011;6652;48.802;9.190;2023-06-22T12:19:38;21.48;;;5.85;;
13173;SDS011;6652;48.802;9.190;2023-06-22T12:22:05;21.92;;;5.65;;
13173;SDS011;6652;48.802;9.190;2023-06-22T12:24:32;17.48;;;5.80;;
13173;SDS011;6652;48.802;9.190;2023-06-22T12:26:58;24.33;;;5.60;;
13173;SDS011;6652;48.802;9.190;2023-06-22T12:29:27;17.25;;;6.10;;
13173;SDS011;6652;48.802;9.190;2023-06-22T12:31:55;17.08;;;5.82;;
13173;SDS011;6652;48.802;9.190;2023-06-22T12:34:21;22.65;;;5.57;;
13173;SDS011;6652;48.802;9.190;2023-06-22T12:36:50;22.13;;;6.45;;
13173;SDS011;6652;48.802;9.190;2023-06-22T12:39:19;20.02;;;6.40;;
13173;SDS011;6652;48.802;9.190;2023-06-22T12:41:46;18.33;;;5.78;;
13173;SDS011;6652;48.802;9.190;2023-06-22T12:44:12;25.20;;;6.07;;
13173;SDS011;6652;48.802;9.190;2023-06-22T12:46:39;18.63;;;6.50;;
13173;SDS011;6652;48.802;9.190;2023-06-22T12:49:06;36.28;;;6.60;;
13173;SDS011;6652;48.802;9.190;2023-06-22T12:51:32;20.30;;;6.10;;
13173;SDS011;6652;48.802;9.190;2023-06-22T12:54:01;15.48;;;5.70;;
13173;SDS011;6652;48.802;9.190;2023-06-22T12:56:28;16.17;;;6.35;;
13173;SDS011;6652;48.802;9.190;2023-06-22T12:58:54;20.98;;;6.00;;
13173;SDS011;6652;48.802;9.190;2023-06-22T13:01:22;19.90;;;6.38;;
13173;SDS011;6652;48.802;9.190;2023-06-22T13:03:49;22.45;;;6.30;;
13173;SDS011;6652;48.802;9.190;2023-06-22T13:06:16;26.75;;;6.85;;
13173;SDS011;6652;48.802;9.190;2023-06-22T13:08:42;28.63;;;6.30;;
13173;SDS011;6652;48.802;9.190;2023-06-22T13:11:11;25.42;;;6.53;;
13173;SDS011;6652;48.802;9.190;2023-06-22T13:13:38;20.45;;;6.53;;
13173;SDS011;6652;48.802;9.190;2023-06-22T13:16:05;15.80;;;6.18;;
13173;SDS011;6652;48.802;9.190;2023-06-22T13:18:32;19.65;;;6.00;;
13173;SDS011;6652;48.802;9.190;2023-06-22T13:21:00;19.85;;;6.38;;
13173;SDS011;6652;48.802;9.190;2023-06-22T13:23:27;18.08;;;6.28;;
13173;SDS011;6652;48.802;9.190;2023-06-22T13:25:54;14.30;;;5.80;;
13173;SDS011;6652;48.802;9.190;2023-06-22T13:28:22;16.10;;;6.45;;
13173;SDS011;6652;48.802;9.190;2023-06-22T13:30:49;19.10;;;6.90;;
13173;SDS011;6652;48.802;9.190;2023-06-22T13:33:16;17.20;;;6.15;;
13173;SDS011;6652;48.802;9.190;2023-06-22T13:35:43;16.17;;;6.35;;
13173;SDS011;6652;48.802;9.190;2023-06-22T13:38:10;19.65;;;6.00;;
13173;SDS011;6652;48.802;9.190;2023-06-22T13:40:36;15.80;;;5.75;;
13173;SDS011;6652;48.802;9.190;2023-06-22T13:43:04;18.63;;;6.72;;
13173;SDS011;6652;48.802;9.190;2023-06-22T13:45:32;19.90;;;6.97;;
13173;SDS011;6652;48.802;9.190;2023-06-22T13:47:59;20.80;;;6.53;;
13173;SDS011;6652;48.802;9.190;2023-06-22T13:50:25;15.02;;;6.07;;
13173;SDS011;6652;48.802;9.190;2023-06-22T13:52:54;20.02;;;6.20;;
13173;SDS011;6652;48.802;9.190;2023-06-22T13:55:21;21.85;;;6.53;;
13173;SDS011;6652;48.802;9.190;2023-06-22T13:57:48;17.48;;;6.15;;
13173;SDS011;6652;48.802;9.190;2023-06-22T14:00:16;13.68;;;5.72;;
13173;SDS011;6652;48.802;9.190;2023-06-22T14:02:45;19.88;;;6.45;;
13173;SDS011;6652;48.802;9.190;2023-06-22T14:05:12;18.83;;;5.78;;
13173;SDS011;6652;48.802;9.190;2023-06-22T14:07:38;21.85;;;6.28;;
13173;SDS011;6652;48.802;9.190;2023-06-22T14:10:06;21.15;;;6.00;;
13173;SDS011;6652;48.802;9.190;2023-06-22T14:12:33;23.35;;;6.07;;
13173;SDS011;6652;48.802;9.190;2023-06-22T14:15:00;21.40;;;6.13;;
13173;SDS011;6652;48.802;9.190;2023-06-22T14:17:26;20.55;;;5.45;;
13173;SDS011;6652;48.802;9.190;2023-06-22T14:19:54;17.55;;;6.00;;
13173;SDS011;6652;48.802;9.190;2023-06-22T14:22:21;21.60;;;5.85;;
13173;SDS011;6652;48.802;9.190;2023-06-22T14:24:48;12.63;;;5.30;;
13173;SDS011;6652;48.802;9.190;2023-06-22T14:27:15;21.13;;;5.50;;
13173;SDS011;6652;48.802;9.190;2023-06-22T14:29:42;18.52;;;5.63;;
13173;SDS011;6652;48.802;9.190;2023-06-22T14:32:09;24.48;;;6.25;;
13173;SDS011;6652;48.802;9.190;2023-06-22T14:34:36;18.95;;;5.93;;
13173;SDS011;6652;48.802;9.190;2023-06-22T14:37:06;16.60;;;6.00;;
13173;SDS011;6652;48.802;9.190;2023-06-22T14:39:34;28.67;;;5.68;;
13173;SDS011;6652;48.802;9.190;2023-06-22T14:42:01;18.92;;;5.65;;
13173;SDS011;6652;48.802;9.190;2023-06-22T14:44:29;19.85;;;5.63;;
13173;SDS011;6652;48.802;9.190;2023-06-22T14:46:56;23.30;;;5.07;;
13173;SDS011;6652;48.802;9.190;2023-06-22T14:49:22;18.35;;;5.10;;
13173;SDS011;6652;48.802;9.190;2023-06-22T14:51:50;18.50;;;5.20;;
13173;SDS011;6652;48.802;9.190;2023-06-22T14:54:18;24.00;;;6.50;;
13173;SDS011;6652;48.802;9.190;2023-06-22T14:56:45;18.30;;;4.63;;
13173;SDS011;6652;48.802;9.190;2023-06-22T14:59:12;23.13;;;4.90;;